sensor_id;sensor_type;location;lat;lon;timestamp;P1;durP1;ratioP1;P2;durP2;ratioP2
23410;SDS011;11878;51.774;7.220;2023-01-19T00:00:44;11.03;;;5.07;;
23410;SDS011;11878;51.774;7.220;2023-01-19T00:03:45;10.60;;;5.97;;
23410;SDS011;11878;51.774;7.220;2023-01-19T00:06:47;11.17;;;5.70;;
23410;SDS011;11878;51.774;7.220;2023-01-19T00:09:49;9.10;;;4.93;;
23410;SDS011;11878;51.774;7.220;2023-01-19T00:12:51;8.13;;;5.23;;
23410;SDS011;11878;51.774;7.220;2023-01-19T00:15:53;10.60;;;6.13;;
23410;SDS011;11878;51.774;7.220;2023-01-19T00:18:54;13.73;;;5.77;;
23410;SDS011;11878;51.774;7.220;2023-01-19T00:21:56;11.23;;;6.20;;
23410;SDS011;11878;51.774;7.220;2023-01-19T00:24:58;9.63;;;5.90;;
23410;SDS011;11878;51.774;7.220;2023-01-19T00:28:00;11.63;;;5.70;;
23410;SDS011;11878;51.774;7.220;2023-01-19T00:31:02;11.23;;;6.53;;
23410;SDS011;11878;51.774;7.220;2023-01-19T00:34:06;9.70;;;5.60;;
23410;SDS011;11878;51.774;7.220;2023-01-19T00:37:08;11.87;;;6.30;;
23410;SDS011;11878;51.774;7.220;2023-01-19T00:40:11;11.50;;;6.67;;
23410;SDS011;11878;51.774;7.220;2023-01-19T00:43:16;12.60;;;7.03;;
23410;SDS011;11878;51.774;7.220;2023-01-19T00:46:17;12.73;;;7.30;;
23410;SDS011;11878;51.774;7.220;2023-01-19T00:49:19;13.10;;;7.50;;
23410;SDS011;11878;51.774;7.220;2023-01-19T00:52:21;8.47;;;5.17;;
23410;SDS011;11878;51.774;7.220;2023-01-19T00:55:22;14.10;;;7.37;;
23410;SDS011;11878;51.774;7.220;2023-01-19T00:58:24;12.53;;;6.97;;
23410;SDS011;11878;51.774;7.220;2023-01-19T01:01:26;12.20;;;5.97;;
23410;SDS011;11878;51.774;7.220;2023-01-19T01:08:24;11.33;;;6.90;;
23410;SDS011;11878;51.774;7.220;2023-01-19T01:11:25;11.93;;;6.67;;
23410;SDS011;11878;51.774;7.220;2023-01-19T01:14:27;13.07;;;6.43;;
23410;SDS011;11878;51.774;7.220;2023-01-19T01:17:29;13.37;;;6.47;;
23410;SDS011;11878;51.774;7.220;2023-01-19T01:31:26;20.63;;;7.13;;
23410;SDS011;11878;51.774;7.220;2023-01-19T01:34:29;15.33;;;7.10;;
23410;SDS011;11878;51.774;7.220;2023-01-19T01:37:30;16.07;;;7.47;;
23410;SDS011;11878;51.774;7.220;2023-01-19T01:40:32;14.90;;;8.67;;
23410;SDS011;11878;51.774;7.220;2023-01-19T01:47:06;9.17;;;6.10;;
23410;SDS011;11878;51.774;7.220;2023-01-19T01:50:21;10.73;;;6.70;;
23410;SDS011;11878;51.774;7.220;2023-01-19T01:53:25;12.33;;;7.60;;
23410;SDS011;11878;51.774;7.220;2023-01-19T01:56:39;15.53;;;7.97;;
23410;SDS011;11878;51.774;7.220;2023-01-19T01:59:44;11.63;;;6.00;;
23410;SDS011;11878;51.774;7.220;2023-01-19T02:02:48;14.20;;;7.07;;
23410;SDS011;11878;51.774;7.220;2023-01-19T02:05:56;15.07;;;7.17;;
23410;SDS011;11878;51.774;7.220;2023-01-19T02:12:38;18.00;;;8.20;;
23410;SDS011;11878;51.774;7.220;2023-01-19T02:26:35;18.63;;;7.80;;
23410;SDS011;11878;51.774;7.220;2023-01-19T02:29:40;18.47;;;8.53;;
23410;SDS011;11878;51.774;7.220;2023-01-19T02:32:47;11.73;;;5.90;;
23410;SDS011;11878;51.774;7.220;2023-01-19T02:35:52;17.30;;;8.60;;
23410;SDS011;11878;51.774;7.220;2023-01-19T02:38:57;12.40;;;6.60;;
23410;SDS011;11878;51.774;7.220;2023-01-19T02:42:02;18.80;;;8.10;;
23410;SDS011;11878;51.774;7.220;2023-01-19T02:45:13;13.97;;;7.07;;
23410;SDS011;11878;51.774;7.220;2023-01-19T02:48:21;11.73;;;7.17;;
23410;SDS011;11878;51.774;7.220;2023-01-19T02:51:24;13.67;;;7.73;;
23410;SDS011;11878;51.774;7.220;2023-01-19T02:55:14;13.90;;;8.17;;
23410;SDS011;11878;51.774;7.220;2023-01-19T02:58:14;13.03;;;7.07;;
23410;SDS011;11878;51.774;7.220;2023-01-19T03:11:43;18.40;;;7.60;;
23410;SDS011;11878;51.774;7.220;2023-01-19T03:14:56;13.80;;;8.30;;
23410;SDS011;11878;51.774;7.220;2023-01-19T03:18:05;15.67;;;6.40;;
23410;SDS011;11878;51.774;7.220;2023-01-19T03:21:14;16.67;;;8.77;;
23410;SDS011;11878;51.774;7.220;2023-01-19T03:24:22;13.37;;;7.30;;
23410;SDS011;11878;51.774;7.220;2023-01-19T03:27:31;12.87;;;6.93;;
23410;SDS011;11878;51.774;7.220;2023-01-19T03:30:41;13.10;;;6.80;;
23410;SDS011;11878;51.774;7.220;2023-01-19T03:33:48;17.30;;;6.30;;
23410;SDS011;11878;51.774;7.220;2023-01-19T03:36:58;13.23;;;6.67;;
23410;SDS011;11878;51.774;7.220;2023-01-19T03:40:08;11.90;;;6.50;;
23410;SDS011;11878;51.774;7.220;2023-01-19T03:43:12;20.23;;;7.00;;
23410;SDS011;11878;51.774;7.220;2023-01-19T03:49:56;12.67;;;5.80;;
23410;SDS011;11878;51.774;7.220;2023-01-19T03:53:12;13.77;;;7.17;;
23410;SDS011;11878;51.774;7.220;2023-01-19T03:56:19;14.33;;;7.00;;
23410;SDS011;11878;51.774;7.220;2023-01-19T03:59:22;11.60;;;6.23;;
23410;SDS011;11878;51.774;7.220;2023-01-19T04:02:24;10.30;;;6.43;;
23410;SDS011;11878;51.774;7.220;2023-01-19T04:05:26;10.90;;;6.10;;
23410;SDS011;11878;51.774;7.220;2023-01-19T04:08:28;16.23;;;6.77;;
23410;SDS011;11878;51.774;7.220;2023-01-19T04:11:30;16.27;;;6.93;;
23410;SDS011;11878;51.774;7.220;2023-01-19T04:14:36;12.17;;;6.97;;
23410;SDS011;11878;51.774;7.220;2023-01-19T04:17:38;13.53;;;7.73;;
23410;SDS011;11878;51.774;7.220;2023-01-19T04:20:40;14.33;;;6.73;;
23410;SDS011;11878;51.774;7.220;2023-01-19T04:23:42;10.97;;;6.23;;
23410;SDS011;11878;51.774;7.220;2023-01-19T04:26:49;10.53;;;6.83;;
23410;SDS011;11878;51.774;7.220;2023-01-19T04:29:54;13.83;;;6.63;;
23410;SDS011;11878;51.774;7.220;2023-01-19T04:33:01;14.97;;;7.30;;
23410;SDS011;11878;51.774;7.220;2023-01-19T04:36:08;12.17;;;7.43;;
23410;SDS011;11878;51.774;7.220;2023-01-19T04:39:10;15.40;;;7.40;;
23410;SDS011;11878;51.774;7.220;2023-01-19T04:52:23;10.27;;;6.37;;
23410;SDS011;11878;51.774;7.220;2023-01-19T04:55:26;11.33;;;6.17;;
23410;SDS011;11878;51.774;7.220;2023-01-19T04:58:28;11.47;;;6.20;;
23410;SDS011;11878;51.774;7.220;2023-01-19T05:01:30;9.83;;;5.30;;
23410;SDS011;11878;51.774;7.220;2023-01-19T05:04:32;12.17;;;7.00;;
23410;SDS011;11878;51.774;7.220;2023-01-19T05:07:34;12.57;;;6.57;;
23410;SDS011;11878;51.774;7.220;2023-01-19T05:10:40;11.40;;;6.60;;
23410;SDS011;11878;51.774;7.220;2023-01-19T05:13:42;10.20;;;5.70;;
23410;SDS011;11878;51.774;7.220;2023-01-19T05:16:43;10.27;;;6.57;;
23410;SDS011;11878;51.774;7.220;2023-01-19T05:19:46;11.20;;;6.20;;
23410;SDS011;11878;51.774;7.220;2023-01-19T05:22:49;12.03;;;5.90;;
23410;SDS011;11878;51.774;7.220;2023-01-19T05:25:52;10.33;;;5.20;;
23410;SDS011;11878;51.774;7.220;2023-01-19T05:28:56;14.07;;;6.33;;
23410;SDS011;11878;51.774;7.220;2023-01-19T05:31:58;10.00;;;5.10;;
23410;SDS011;11878;51.774;7.220;2023-01-19T05:35:01;9.63;;;5.77;;
23410;SDS011;11878;51.774;7.220;2023-01-19T05:38:03;11.77;;;5.90;;
23410;SDS011;11878;51.774;7.220;2023-01-19T05:41:10;7.97;;;5.00;;
23410;SDS011;11878;51.774;7.220;2023-01-19T05:44:15;8.03;;;4.03;;
23410;SDS011;11878;51.774;7.220;2023-01-19T05:47:17;7.60;;;4.03;;
23410;SDS011;11878;51.774;7.220;2023-01-19T05:50:19;7.87;;;4.20;;
23410;SDS011;11878;51.774;7.220;2023-01-19T05:53:21;9.53;;;4.93;;
23410;SDS011;11878;51.774;7.220;2023-01-19T05:56:24;7.07;;;3.67;;
23410;SDS011;11878;51.774;7.220;2023-01-19T05:59:35;12.07;;;4.33;;
23410;SDS011;11878;51.774;7.220;2023-01-19T06:02:38;9.23;;;4.90;;
23410;SDS011;11878;51.774;7.220;2023-01-19T06:05:41;8.03;;;4.60;;
23410;SDS011;11878;51.774;7.220;2023-01-19T06:08:43;6.67;;;4.00;;
23410;SDS011;11878;51.774;7.220;2023-01-19T06:11:49;6.57;;;4.10;;
23410;SDS011;11878;51.774;7.220;2023-01-19T06:14:54;7.93;;;4.63;;
23410;SDS011;11878;51.774;7.220;2023-01-19T06:17:56;5.53;;;3.43;;
23410;SDS011;11878;51.774;7.220;2023-01-19T06:21:01;4.63;;;3.30;;
23410;SDS011;11878;51.774;7.220;2023-01-19T06:24:09;5.20;;;3.03;;
23410;SDS011;11878;51.774;7.220;2023-01-19T06:27:14;6.67;;;3.97;;
23410;SDS011;11878;51.774;7.220;2023-01-19T06:30:16;5.57;;;3.50;;
23410;SDS011;11878;51.774;7.220;2023-01-19T06:33:18;7.43;;;4.63;;
23410;SDS011;11878;51.774;7.220;2023-01-19T06:36:20;7.43;;;4.70;;
23410;SDS011;11878;51.774;7.220;2023-01-19T06:39:24;6.83;;;4.47;;
23410;SDS011;11878;51.774;7.220;2023-01-19T06:42:27;5.70;;;3.63;;
23410;SDS011;11878;51.774;7.220;2023-01-19T06:45:29;6.70;;;4.33;;
23410;SDS011;11878;51.774;7.220;2023-01-19T06:48:31;5.70;;;3.67;;
23410;SDS011;11878;51.774;7.220;2023-01-19T06:51:33;4.97;;;3.80;;
23410;SDS011;11878;51.774;7.220;2023-01-19T06:54:35;5.37;;;3.50;;
23410;SDS011;11878;51.774;7.220;2023-01-19T06:57:37;6.07;;;3.67;;
23410;SDS011;11878;51.774;7.220;2023-01-19T07:00:40;5.30;;;3.53;;
23410;SDS011;11878;51.774;7.220;2023-01-19T07:03:43;5.43;;;3.47;;
23410;SDS011;11878;51.774;7.220;2023-01-19T07:06:47;5.90;;;3.77;;
23410;SDS011;11878;51.774;7.220;2023-01-19T07:09:49;5.23;;;3.63;;
23410;SDS011;11878;51.774;7.220;2023-01-19T07:12:55;6.23;;;3.93;;
23410;SDS011;11878;51.774;7.220;2023-01-19T07:15:58;4.97;;;3.73;;
23410;SDS011;11878;51.774;7.220;2023-01-19T07:19:07;7.43;;;4.37;;
23410;SDS011;11878;51.774;7.220;2023-01-19T07:22:11;6.80;;;4.13;;
23410;SDS011;11878;51.774;7.220;2023-01-19T07:25:13;6.53;;;4.00;;
23410;SDS011;11878;51.774;7.220;2023-01-19T07:28:15;8.47;;;5.10;;
23410;SDS011;11878;51.774;7.220;2023-01-19T07:31:20;23.90;;;11.07;;
23410;SDS011;11878;51.774;7.220;2023-01-19T07:34:22;11.20;;;6.40;;
23410;SDS011;11878;51.774;7.220;2023-01-19T07:37:24;7.73;;;4.70;;
23410;SDS011;11878;51.774;7.220;2023-01-19T07:40:26;11.97;;;5.90;;
23410;SDS011;11878;51.774;7.220;2023-01-19T07:43:28;7.20;;;4.70;;
23410;SDS011;11878;51.774;7.220;2023-01-19T07:46:30;10.03;;;6.33;;
23410;SDS011;11878;51.774;7.220;2023-01-19T07:49:32;11.17;;;5.30;;
23410;SDS011;11878;51.774;7.220;2023-01-19T07:52:35;9.20;;;5.17;;
23410;SDS011;11878;51.774;7.220;2023-01-19T07:55:40;9.13;;;6.13;;
23410;SDS011;11878;51.774;7.220;2023-01-19T07:58:41;10.43;;;6.33;;
23410;SDS011;11878;51.774;7.220;2023-01-19T08:01:45;17.77;;;8.67;;
23410;SDS011;11878;51.774;7.220;2023-01-19T08:04:49;10.33;;;5.80;;
23410;SDS011;11878;51.774;7.220;2023-01-19T08:07:52;9.00;;;5.03;;
23410;SDS011;11878;51.774;7.220;2023-01-19T08:10:56;10.70;;;5.83;;
23410;SDS011;11878;51.774;7.220;2023-01-19T08:13:58;7.13;;;4.37;;
23410;SDS011;11878;51.774;7.220;2023-01-19T08:17:02;6.27;;;4.43;;
23410;SDS011;11878;51.774;7.220;2023-01-19T08:20:04;10.80;;;4.37;;
23410;SDS011;11878;51.774;7.220;2023-01-19T08:23:08;12.60;;;7.03;;
23410;SDS011;11878;51.774;7.220;2023-01-19T08:26:17;7.37;;;4.77;;
23410;SDS011;11878;51.774;7.220;2023-01-19T08:29:20;13.37;;;4.77;;
23410;SDS011;11878;51.774;7.220;2023-01-19T08:32:22;8.90;;;5.20;;
23410;SDS011;11878;51.774;7.220;2023-01-19T08:35:24;10.40;;;5.20;;
23410;SDS011;11878;51.774;7.220;2023-01-19T08:38:26;7.90;;;4.50;;
23410;SDS011;11878;51.774;7.220;2023-01-19T08:41:28;6.57;;;4.20;;
23410;SDS011;11878;51.774;7.220;2023-01-19T08:44:30;5.57;;;3.83;;
23410;SDS011;11878;51.774;7.220;2023-01-19T08:47:31;8.10;;;4.43;;
23410;SDS011;11878;51.774;7.220;2023-01-19T08:50:33;8.80;;;4.60;;
23410;SDS011;11878;51.774;7.220;2023-01-19T08:53:35;9.03;;;4.33;;
23410;SDS011;11878;51.774;7.220;2023-01-19T08:56:37;6.73;;;4.50;;
23410;SDS011;11878;51.774;7.220;2023-01-19T08:59:39;9.43;;;5.30;;
23410;SDS011;11878;51.774;7.220;2023-01-19T09:02:41;5.17;;;3.77;;
23410;SDS011;11878;51.774;7.220;2023-01-19T09:05:43;7.40;;;3.97;;
23410;SDS011;11878;51.774;7.220;2023-01-19T09:08:45;9.30;;;4.83;;
23410;SDS011;11878;51.774;7.220;2023-01-19T09:11:47;11.73;;;4.83;;
23410;SDS011;11878;51.774;7.220;2023-01-19T09:14:49;12.73;;;5.20;;
23410;SDS011;11878;51.774;7.220;2023-01-19T09:17:51;7.47;;;4.73;;
23410;SDS011;11878;51.774;7.220;2023-01-19T09:20:55;7.77;;;4.57;;
23410;SDS011;11878;51.774;7.220;2023-01-19T09:23:57;9.47;;;4.83;;
23410;SDS011;11878;51.774;7.220;2023-01-19T09:26:59;9.90;;;5.20;;
23410;SDS011;11878;51.774;7.220;2023-01-19T09:30:02;11.37;;;5.07;;
23410;SDS011;11878;51.774;7.220;2023-01-19T09:33:05;7.67;;;5.17;;
23410;SDS011;11878;51.774;7.220;2023-01-19T09:36:11;13.70;;;4.80;;
23410;SDS011;11878;51.774;7.220;2023-01-19T09:39:13;11.23;;;5.77;;
23410;SDS011;11878;51.774;7.220;2023-01-19T09:42:37;14.77;;;6.43;;
23410;SDS011;11878;51.774;7.220;2023-01-19T09:45:52;11.00;;;5.17;;
23410;SDS011;11878;51.774;7.220;2023-01-19T09:49:38;11.27;;;5.70;;
23410;SDS011;11878;51.774;7.220;2023-01-19T09:52:46;12.60;;;5.47;;
23410;SDS011;11878;51.774;7.220;2023-01-19T09:56:03;15.37;;;7.00;;
23410;SDS011;11878;51.774;7.220;2023-01-19T09:59:19;9.97;;;5.77;;
23410;SDS011;11878;51.774;7.220;2023-01-19T10:02:57;11.83;;;6.93;;
23410;SDS011;11878;51.774;7.220;2023-01-19T10:06:03;13.00;;;7.30;;
23410;SDS011;11878;51.774;7.220;2023-01-19T10:12:16;14.23;;;7.93;;
23410;SDS011;11878;51.774;7.220;2023-01-19T10:15:27;13.83;;;8.10;;
23410;SDS011;11878;51.774;7.220;2023-01-19T10:21:46;14.77;;;8.30;;
23410;SDS011;11878;51.774;7.220;2023-01-19T10:24:52;14.97;;;8.93;;
23410;SDS011;11878;51.774;7.220;2023-01-19T10:28:00;16.50;;;9.07;;
23410;SDS011;11878;51.774;7.220;2023-01-19T10:31:02;15.97;;;9.20;;
23410;SDS011;11878;51.774;7.220;2023-01-19T10:34:08;16.20;;;9.90;;
23410;SDS011;11878;51.774;7.220;2023-01-19T10:37:26;14.03;;;9.70;;
23410;SDS011;11878;51.774;7.220;2023-01-19T10:43:40;18.43;;;8.10;;
23410;SDS011;11878;51.774;7.220;2023-01-19T10:46:47;13.00;;;8.93;;
23410;SDS011;11878;51.774;7.220;2023-01-19T10:49:50;16.47;;;8.60;;
23410;SDS011;11878;51.774;7.220;2023-01-19T10:52:53;16.43;;;9.57;;
23410;SDS011;11878;51.774;7.220;2023-01-19T10:56:14;15.07;;;9.33;;
23410;SDS011;11878;51.774;7.220;2023-01-19T10:59:55;13.10;;;9.27;;
23410;SDS011;11878;51.774;7.220;2023-01-19T11:02:51;14.53;;;8.90;;
23410;SDS011;11878;51.774;7.220;2023-01-19T11:09:16;13.23;;;8.57;;
23410;SDS011;11878;51.774;7.220;2023-01-19T11:12:20;20.17;;;8.97;;
23410;SDS011;11878;51.774;7.220;2023-01-19T11:15:24;14.60;;;8.90;;
23410;SDS011;11878;51.774;7.220;2023-01-19T11:18:37;16.17;;;9.10;;
23410;SDS011;11878;51.774;7.220;2023-01-19T11:21:41;12.63;;;8.30;;
23410;SDS011;11878;51.774;7.220;2023-01-19T11:24:43;11.50;;;8.00;;
23410;SDS011;11878;51.774;7.220;2023-01-19T11:27:47;19.17;;;8.50;;
23410;SDS011;11878;51.774;7.220;2023-01-19T11:31:37;15.87;;;8.80;;
23410;SDS011;11878;51.774;7.220;2023-01-19T11:37:31;18.17;;;9.70;;
23410;SDS011;11878;51.774;7.220;2023-01-19T11:40:34;16.33;;;9.73;;
23410;SDS011;11878;51.774;7.220;2023-01-19T11:43:36;19.83;;;9.77;;
23410;SDS011;11878;51.774;7.220;2023-01-19T11:46:51;18.23;;;8.87;;
23410;SDS011;11878;51.774;7.220;2023-01-19T11:50:01;16.63;;;9.67;;
23410;SDS011;11878;51.774;7.220;2023-01-19T11:56:27;14.30;;;8.50;;
23410;SDS011;11878;51.774;7.220;2023-01-19T11:59:29;15.03;;;9.10;;
23410;SDS011;11878;51.774;7.220;2023-01-19T12:02:41;15.60;;;7.87;;
23410;SDS011;11878;51.774;7.220;2023-01-19T12:05:47;23.70;;;8.63;;
23410;SDS011;11878;51.774;7.220;2023-01-19T12:08:57;17.00;;;9.17;;
23410;SDS011;11878;51.774;7.220;2023-01-19T12:12:06;18.20;;;8.73;;
23410;SDS011;11878;51.774;7.220;2023-01-19T12:15:23;16.97;;;9.27;;
23410;SDS011;11878;51.774;7.220;2023-01-19T12:18:39;14.03;;;9.07;;
23410;SDS011;11878;51.774;7.220;2023-01-19T12:22:03;16.53;;;9.70;;
23410;SDS011;11878;51.774;7.220;2023-01-19T12:25:30;27.03;;;8.50;;
23410;SDS011;11878;51.774;7.220;2023-01-19T12:28:48;12.27;;;7.07;;
23410;SDS011;11878;51.774;7.220;2023-01-19T12:32:53;15.50;;;8.93;;
23410;SDS011;11878;51.774;7.220;2023-01-19T12:39:03;24.00;;;12.80;;
23410;SDS011;11878;51.774;7.220;2023-01-19T12:42:34;18.00;;;7.27;;
23410;SDS011;11878;51.774;7.220;2023-01-19T12:45:36;22.17;;;9.20;;
23410;SDS011;11878;51.774;7.220;2023-01-19T12:48:50;18.67;;;8.70;;
23410;SDS011;11878;51.774;7.220;2023-01-19T12:52:12;20.77;;;8.87;;
23410;SDS011;11878;51.774;7.220;2023-01-19T12:55:27;20.73;;;11.30;;
23410;SDS011;11878;51.774;7.220;2023-01-19T13:47:36;20.13;;;10.07;;
23410;SDS011;11878;51.774;7.220;2023-01-19T13:50:43;18.73;;;8.70;;
23410;SDS011;11878;51.774;7.220;2023-01-19T13:53:58;17.93;;;9.20;;
23410;SDS011;11878;51.774;7.220;2023-01-19T15:17:57;22.07;;;10.43;;
23410;SDS011;11878;51.774;7.220;2023-01-19T16:05:02;23.83;;;9.53;;
23410;SDS011;11878;51.774;7.220;2023-01-19T16:08:04;17.90;;;8.83;;
23410;SDS011;11878;51.774;7.220;2023-01-19T16:11:06;22.17;;;9.67;;
23410;SDS011;11878;51.774;7.220;2023-01-19T16:14:13;26.13;;;9.60;;
23410;SDS011;11878;51.774;7.220;2023-01-19T17:05:25;12.80;;;7.47;;
23410;SDS011;11878;51.774;7.220;2023-01-19T17:08:26;19.57;;;8.73;;
23410;SDS011;11878;51.774;7.220;2023-01-19T17:11:29;22.87;;;9.40;;
23410;SDS011;11878;51.774;7.220;2023-01-19T17:14:32;25.80;;;7.90;;
23410;SDS011;11878;51.774;7.220;2023-01-19T18:03:16;17.77;;;7.87;;
23410;SDS011;11878;51.774;7.220;2023-01-19T18:06:18;26.87;;;9.80;;
23410;SDS011;11878;51.774;7.220;2023-01-19T18:09:21;16.50;;;7.97;;
23410;SDS011;11878;51.774;7.220;2023-01-19T18:12:23;24.40;;;10.03;;
23410;SDS011;11878;51.774;7.220;2023-01-19T18:15:24;22.17;;;9.20;;
23410;SDS011;11878;51.774;7.220;2023-01-19T19:02:02;23.73;;;10.23;;
23410;SDS011;11878;51.774;7.220;2023-01-19T19:05:07;16.63;;;9.03;;
23410;SDS011;11878;51.774;7.220;2023-01-19T19:08:09;24.27;;;9.63;;
23410;SDS011;11878;51.774;7.220;2023-01-19T19:11:11;23.83;;;9.80;;
23410;SDS011;11878;51.774;7.220;2023-01-19T19:14:14;25.73;;;10.13;;
23410;SDS011;11878;51.774;7.220;2023-01-19T19:20:19;21.93;;;10.03;;
23410;SDS011;11878;51.774;7.220;2023-01-19T19:23:22;24.13;;;10.87;;
23410;SDS011;11878;51.774;7.220;2023-01-19T19:26:25;23.90;;;10.73;;
23410;SDS011;11878;51.774;7.220;2023-01-19T19:29:28;19.80;;;9.77;;
23410;SDS011;11878;51.774;7.220;2023-01-19T19:32:30;25.47;;;11.83;;
23410;SDS011;11878;51.774;7.220;2023-01-19T19:35:32;21.77;;;9.57;;
23410;SDS011;11878;51.774;7.220;2023-01-19T19:38:34;26.23;;;10.37;;
23410;SDS011;11878;51.774;7.220;2023-01-19T19:41:41;22.77;;;9.90;;
23410;SDS011;11878;51.774;7.220;2023-01-19T19:44:43;30.83;;;9.87;;
23410;SDS011;11878;51.774;7.220;2023-01-19T19:47:44;19.00;;;10.33;;
23410;SDS011;11878;51.774;7.220;2023-01-19T19:50:46;25.67;;;11.43;;
23410;SDS011;11878;51.774;7.220;2023-01-19T19:53:48;20.70;;;10.20;;
23410;SDS011;11878;51.774;7.220;2023-01-19T19:56:52;17.67;;;9.93;;
23410;SDS011;11878;51.774;7.220;2023-01-19T19:59:53;23.53;;;10.13;;
23410;SDS011;11878;51.774;7.220;2023-01-19T20:02:55;24.00;;;10.57;;
23410;SDS011;11878;51.774;7.220;2023-01-19T20:06:01;27.50;;;11.83;;
23410;SDS011;11878;51.774;7.220;2023-01-19T20:09:04;23.13;;;11.30;;
23410;SDS011;11878;51.774;7.220;2023-01-19T20:12:07;28.33;;;10.70;;
23410;SDS011;11878;51.774;7.220;2023-01-19T20:15:09;21.47;;;10.90;;
23410;SDS011;11878;51.774;7.220;2023-01-19T20:18:11;27.30;;;10.73;;
23410;SDS011;11878;51.774;7.220;2023-01-19T20:21:14;25.87;;;11.90;;
23410;SDS011;11878;51.774;7.220;2023-01-19T20:24:24;28.13;;;11.83;;
23410;SDS011;11878;51.774;7.220;2023-01-19T20:27:26;30.83;;;11.47;;
23410;SDS011;11878;51.774;7.220;2023-01-19T20:30:27;24.07;;;11.17;;
23410;SDS011;11878;51.774;7.220;2023-01-19T20:33:29;23.70;;;12.17;;
23410;SDS011;11878;51.774;7.220;2023-01-19T20:36:31;29.20;;;11.40;;
23410;SDS011;11878;51.774;7.220;2023-01-19T20:39:33;25.83;;;12.70;;
23410;SDS011;11878;51.774;7.220;2023-01-19T20:42:37;30.63;;;12.27;;
23410;SDS011;11878;51.774;7.220;2023-01-19T20:45:41;37.87;;;14.93;;
23410;SDS011;11878;51.774;7.220;2023-01-19T20:48:44;31.20;;;13.90;;
23410;SDS011;11878;51.774;7.220;2023-01-19T20:51:50;32.30;;;14.67;;
23410;SDS011;11878;51.774;7.220;2023-01-19T20:54:53;31.60;;;11.80;;
23410;SDS011;11878;51.774;7.220;2023-01-19T20:57:55;31.13;;;14.17;;
23410;SDS011;11878;51.774;7.220;2023-01-19T21:00:57;36.10;;;13.03;;
23410;SDS011;11878;51.774;7.220;2023-01-19T21:03:59;32.20;;;13.20;;
23410;SDS011;11878;51.774;7.220;2023-01-19T21:07:00;28.53;;;12.57;;
23410;SDS011;11878;51.774;7.220;2023-01-19T21:10:02;28.47;;;13.77;;
23410;SDS011;11878;51.774;7.220;2023-01-19T21:13:04;25.67;;;12.53;;
23410;SDS011;11878;51.774;7.220;2023-01-19T21:16:06;28.73;;;12.47;;
23410;SDS011;11878;51.774;7.220;2023-01-19T21:19:08;31.03;;;12.03;;
23410;SDS011;11878;51.774;7.220;2023-01-19T21:22:10;28.13;;;12.97;;
23410;SDS011;11878;51.774;7.220;2023-01-19T21:25:12;31.50;;;11.43;;
23410;SDS011;11878;51.774;7.220;2023-01-19T21:28:14;22.43;;;10.73;;
23410;SDS011;11878;51.774;7.220;2023-01-19T21:31:16;33.43;;;13.37;;
23410;SDS011;11878;51.774;7.220;2023-01-19T21:34:18;24.00;;;11.67;;
23410;SDS011;11878;51.774;7.220;2023-01-19T21:37:20;25.03;;;11.47;;
23410;SDS011;11878;51.774;7.220;2023-01-19T21:40:21;26.23;;;10.80;;
23410;SDS011;11878;51.774;7.220;2023-01-19T21:43:24;30.67;;;12.67;;
23410;SDS011;11878;51.774;7.220;2023-01-19T21:46:27;22.23;;;11.43;;
23410;SDS011;11878;51.774;7.220;2023-01-19T21:49:29;36.00;;;13.57;;
23410;SDS011;11878;51.774;7.220;2023-01-19T21:52:31;29.33;;;11.10;;
23410;SDS011;11878;51.774;7.220;2023-01-19T21:55:33;31.93;;;14.20;;
23410;SDS011;11878;51.774;7.220;2023-01-19T21:58:35;36.83;;;13.33;;
23410;SDS011;11878;51.774;7.220;2023-01-19T22:01:37;30.93;;;13.63;;
23410;SDS011;11878;51.774;7.220;2023-01-19T22:04:39;28.70;;;12.13;;
23410;SDS011;11878;51.774;7.220;2023-01-19T22:07:41;26.83;;;12.00;;
23410;SDS011;11878;51.774;7.220;2023-01-19T22:10:42;29.77;;;12.70;;
23410;SDS011;11878;51.774;7.220;2023-01-19T22:13:44;35.83;;;13.83;;
23410;SDS011;11878;51.774;7.220;2023-01-19T22:16:46;31.77;;;13.00;;
23410;SDS011;11878;51.774;7.220;2023-01-19T22:19:48;31.60;;;11.73;;
23410;SDS011;11878;51.774;7.220;2023-01-19T22:22:50;27.87;;;12.67;;
23410;SDS011;11878;51.774;7.220;2023-01-19T22:25:52;31.10;;;12.63;;
23410;SDS011;11878;51.774;7.220;2023-01-19T22:28:54;27.83;;;12.93;;
23410;SDS011;11878;51.774;7.220;2023-01-19T22:31:57;25.77;;;12.47;;
23410;SDS011;11878;51.774;7.220;2023-01-19T22:34:59;32.13;;;12.37;;
23410;SDS011;11878;51.774;7.220;2023-01-19T22:38:01;28.53;;;13.03;;
23410;SDS011;11878;51.774;7.220;2023-01-19T22:41:16;27.27;;;13.70;;
23410;SDS011;11878;51.774;7.220;2023-01-19T22:44:39;32.90;;;13.43;;
23410;SDS011;11878;51.774;7.220;2023-01-19T22:47:41;26.70;;;13.03;;
23410;SDS011;11878;51.774;7.220;2023-01-19T22:50:42;33.03;;;12.63;;
23410;SDS011;11878;51.774;7.220;2023-01-19T22:53:44;32.47;;;14.20;;
23410;SDS011;11878;51.774;7.220;2023-01-19T22:56:46;27.17;;;13.43;;
23410;SDS011;11878;51.774;7.220;2023-01-19T22:59:48;26.47;;;13.17;;
23410;SDS011;11878;51.774;7.220;2023-01-19T23:02:50;28.43;;;13.43;;
23410;SDS011;11878;51.774;7.220;2023-01-19T23:05:52;34.87;;;15.30;;
23410;SDS011;11878;51.774;7.220;2023-01-19T23:08:54;33.67;;;14.93;;
23410;SDS011;11878;51.774;7.220;2023-01-19T23:11:57;34.03;;;14.00;;
23410;SDS011;11878;51.774;7.220;2023-01-19T23:14:59;33.67;;;15.33;;
23410;SDS011;11878;51.774;7.220;2023-01-19T23:18:00;36.77;;;15.73;;
23410;SDS011;11878;51.774;7.220;2023-01-19T23:21:06;27.70;;;13.97;;
23410;SDS011;11878;51.774;7.220;2023-01-19T23:24:10;40.73;;;15.40;;
23410;SDS011;11878;51.774;7.220;2023-01-19T23:27:12;35.10;;;15.57;;
23410;SDS011;11878;51.774;7.220;2023-01-19T23:30:13;37.23;;;16.03;;
23410;SDS011;11878;51.774;7.220;2023-01-19T23:33:15;36.00;;;15.93;;
23410;SDS011;11878;51.774;7.220;2023-01-19T23:36:18;38.07;;;15.07;;
23410;SDS011;11878;51.774;7.220;2023-01-19T23:39:20;35.73;;;14.50;;
23410;SDS011;11878;51.774;7.220;2023-01-19T23:42:23;36.13;;;15.33;;
23410;SDS011;11878;51.774;7.220;2023-01-19T23:45:24;28.30;;;14.40;;
23410;SDS011;11878;51.774;7.220;2023-01-19T23:48:26;33.53;;;15.60;;
23410;SDS011;11878;51.774;7.220;2023-01-19T23:51:28;31.97;;;16.00;;
23410;SDS011;11878;51.774;7.220;2023-01-19T23:54:31;32.30;;;14.57;;
23410;SDS011;11878;51.774;7.220;2023-01-19T23:57:33;34.97;;;13.23;;
